Goodhue, MN

6:17 PM CST on December 24, 2014 (GMT -0600)
Covered Bridge Park | Change Station
CLOSE
Current Station
Personal Weather Station
Location: Zumbrota, MN
Elevation: 979 ft
Nearby Weather Stations

Elev 979 ft 44.30 °N, 92.68 °W | Updated 7 seconds ago

Overcast
Overcast
33.7 °F
Feels Like 34 °F
N
1.1
Wind Variable Wind from WNW
Gusts 4.0 mph

Today
High -- | Low -- °F
--% Chance of Precip.
Yesterday
High -- | Low -- °F
Precip. -- in
7:44 AM 4:35 PM
Waxing Crescent, 12% visible
Pressure 29.61 in
Visibility 10.0 miles
Clouds Mostly Cloudy 2400 ft
Overcast 3700 ft
Windchill 34 °F
Dew Point 31 °F
Humidity 89%
Rainfall 0.00 in
Snow Depth Not available.
UV 0.0 out of 12
Pollen .10 out of 12
Air Quality Not available.
Flu Activity Not available.
METAR KRGK 242351Z AUTO 00000KT 10SM BKN024 OVC037 01/M01 A2961 RMK AO2

More Conditions Fewer Conditions

Pressure 29.61 in
Visibility 10.0 miles
Clouds Mostly Cloudy 2400 ft
Overcast 3700 ft
Windchill 34 °F
Dew Point 31 °F
Humidity 89%
Rainfall 0.00 in
Snow Depth Not available.
UV 0.0 out of 12
Pollen .10 out of 12
Air Quality Not available.
Flu Activity Not available.
METAR KRGK 242351Z AUTO 00000KT 10SM BKN024 OVC037 01/M01 A2961 RMK AO2

More Conditions Fewer Conditions

10-Day Weather Forecast

Almanac

Astronomy

Dec. 24, 2014 Rise Set
Actual Time
Civil Twilight
Nautical Twilight
Astronomical Twilight
Moon
Length of Visible Light
Length of Day
Tomorrow will be .
, % of the Moon is Illuminated

Today's Extremes

State Highs State Lows

Community

WunderPhotos

Upload Photos

1,780,188 photos uploaded!

WunderBlogs® & News

Nearby

Air Quality

  Air Quality AQ Index Pollutant
Not available.

Snow Depth

Station Depth Elevation

Earthquake Activity

City Distance Mag. Time & Date
Minimum magnitude displayed is 2.5.

Coastal Water Temperatures

Place Temperature

Nearby Weather Stations